Virtual LH

Virtual LH. There's no better way to fly
Since 2013.



 METAR AND TAF INFORMATION
METAR FOR SBKP
ADDS - METARS form results

(1251 UTC 23 May 2018)
Data provider http://aviationweather.gov/adds/metars/
 
METAR text: SBKP 231200Z 10007KT 9000 NSC 16/10 Q1023
Conditions at: SBKP (CAMPINAS/VIRACOP, BR) observed 1200 UTC 23 May 2018
Temperature: 16.0°C (61°F)
Dewpoint: 10.0°C (50°F) [RH = 68%]
Pressure (altimeter): 30.21 inches Hg (1023.0 mb)
Winds: from the E (100 degrees) at 8 MPH (7 knots; 3.6 m/s)
Visibility: 6 miles (9 km)
Ceiling: at least 12,000 feet AGL
Clouds: sky clear below 12,000 feet AGL
Weather: no significant weather observed at this time

Forecast for: SBKP (CAMPINAS/VIRACOP, BR)
Text: TAF SBKP 231002Z 2312/2412 10005KT CAVOK TX24/2318Z TN10/2408Z
Forecast period: 1200 to 2000 UTC 23 May 2018
Forecast type: FROM: standard forecast or significant change
Winds: from the E (100 degrees) at 6 MPH (5 knots; 2.6 m/s)
Visibility: 6 or more miles (10+ km)
Clouds: not forecast
Weather: no significant weather forecast for this period
Forecast for: SBKP (CAMPINAS/VIRACOP, BR)
Text: TAF SBKP 231002Z 2312/2412 10005KT CAVOK TX24/2318Z TN10/2408Z
Forecast period: 1200 to 2000 UTC 23 May 2018
Forecast type: FROM: standard forecast or significant change
Winds: from the E (100 degrees) at 6 MPH (5 knots; 2.6 m/s)
Visibility: 6 or more miles (10+ km)
Clouds: not forecast
Weather: no significant weather forecast for this period
Forecast for: SBKP (CAMPINAS/VIRACOP, BR)
Text: TAF SBKP 231002Z 2312/2412 10005KT CAVOK TX24/2318Z TN10/2408Z
Forecast period: 2000 to 2300 UTC 23 May 2018
Forecast type: BECOMING: Conditions expected to become as follows by 2200 UTC 23 May 2018
Winds: from the SSE (150 degrees) at 8 MPH (7 knots; 3.6 m/s)
Visibility: 6 or more miles (10+ km)
Weather: no significant weather forecast for this period
Forecast for: SBKP (CAMPINAS/VIRACOP, BR)
Text: TAF SBKP 231002Z 2312/2412 10005KT CAVOK TX24/2318Z TN10/2408Z
Forecast period: 2000 to 2300 UTC 23 May 2018
Forecast type: BECOMING: Conditions expected to become as follows by 2200 UTC 23 May 2018
Winds: from the SSE (150 degrees) at 8 MPH (7 knots; 3.6 m/s)
Visibility: 6 or more miles (10+ km)
Weather: no significant weather forecast for this period
Forecast for: SBKP (CAMPINAS/VIRACOP, BR)
Text: TAF SBKP 231002Z 2312/2412 10005KT CAVOK TX24/2318Z TN10/2408Z
Forecast period: 2300 UTC 23 May 2018 to 0400 UTC 24 May 2018
Forecast type: BECOMING: Conditions expected to become as follows by 0100 UTC 24 May 2018
Winds: from the SE (130 degrees) at 9 MPH (8 knots; 4.2 m/s)
Visibility: 6 or more miles (10+ km)
Weather: no significant weather forecast for this period
Forecast for: SBKP (CAMPINAS/VIRACOP, BR)
Text: TAF SBKP 231002Z 2312/2412 10005KT CAVOK TX24/2318Z TN10/2408Z
Forecast period: 2300 UTC 23 May 2018 to 0400 UTC 24 May 2018
Forecast type: BECOMING: Conditions expected to become as follows by 0100 UTC 24 May 2018
Winds: from the SE (130 degrees) at 9 MPH (8 knots; 4.2 m/s)
Visibility: 6 or more miles (10+ km)
Weather: no significant weather forecast for this period
Forecast for: SBKP (CAMPINAS/VIRACOP, BR)
Text: TAF SBKP 231002Z 2312/2412 10005KT CAVOK TX24/2318Z TN10/2408Z
Forecast period: 0400 to 1200 UTC 24 May 2018
Forecast type: BECOMING: Conditions expected to become as follows by 0600 UTC 24 May 2018
Winds: from the ESE (110 degrees) at 7 MPH (6 knots; 3.1 m/s)
Visibility: 6 or more miles (10+ km)
Weather: no significant weather forecast for this period
Forecast for: SBKP (CAMPINAS/VIRACOP, BR)
Text: TAF SBKP 231002Z 2312/2412 10005KT CAVOK TX24/2318Z TN10/2408Z
Forecast period: 0400 to 1200 UTC 24 May 2018
Forecast type: BECOMING: Conditions expected to become as follows by 0600 UTC 24 May 2018
Winds: from the ESE (110 degrees) at 7 MPH (6 knots; 3.1 m/s)
Visibility: 6 or more miles (10+ km)
Weather: no significant weather forecast for this period

 AIRPORT MAP

 RUNWAY INFORMATION
Runway 15 Runway length 10630 ft Runway width 148 ft
Runway elevation 2139 ft Runway displaced threshold 0 ft Runway heading 128
Runway 33 Runway length 10630 ft Runway width 148 ft
Runway elevation 2170 ft Runway displaced threshold 0 ft Runway heading 308

 AIRPORT FREQUENCIES
Type APP Name CAMPINAS A Frequency 121.4 MHZ
Type GND Name GND Frequency 121.9 MHZ
Type TWR Name CAMPINAS T Frequency 118.25 MHZ

 AIRPORT NEAR NAVIGATION AIDS
Type VOR-DME Name Campinas Frequency 112000 KHZ
Type NDB Name Grama Frequency 395 KHZ